Ingeniero Maschwitz, Argentina
Current Conditions -  °F | °C
As of 7:00 AM on Saturday 01 Nov 2014 (Local Time) from SADF Reporting Station
Overcast Overcast  
Wind Chill: 57°   Ceiling: 10000
Heat Index: 57°   Visibility: 6mi
Dew Point: 41°   Wind: 14mph
Humidity: 55%   Direction: 140°SE
Pressure: 30.24"   Gusts: NA
Location:  34.38°S, 58.73°W
Report Text: SADF 011000Z 14012KT 9999 FEW020 OVC10014/05 Q1024
Loading
Personal Weather Stations






























Interactive Weather Map
Tropical Storm Tracking
New forecast layout! Learn more

10-Day Weather Forecast

Advertisements
Track Severe Weather on mobile